Time;durP1;ratioP1;P1;durP2;ratioP2;P2;SDS_P1;SDS_P2;PMS_P1;PMS_P2;Temp;Humidity;BMP_temperature;BMP_pressure;BME280_temperature;BME280_humidity;BME280_pressure;Samples;Min_cycle;Max_cycle;Signal;HPM_P1;HPM_P2
2021/05/24 07:40:56;;;;;;;5.92;3.12;;;;;;;14.84;72.36;98636.56;1862967;75;22684;-64
2021/05/24 07:43:28;;;;;;;4.78;2.90;;;;;;;14.92;71.92;98643.95;1838713;77;21701;-67
2021/05/24 07:45:55;;;;;;;3.62;2.58;;;;;;;15.05;71.81;98640.97;1840452;77;21211;-68
2021/05/24 07:48:22;;;;;;;4.25;2.25;;;;;;;15.07;70.93;98644.95;1828334;77;21095;-68
2021/05/24 07:50:50;;;;;;;5.40;2.87;;;;;;;15.00;70.21;98649.97;1837618;77;21088;-66
2021/05/24 07:53:18;;;;;;;5.30;2.75;;;;;;;14.99;70.47;98652.44;1833217;77;21015;-64
2021/05/24 07:55:47;;;;;;;4.70;2.52;;;;;;;15.05;70.66;98655.26;1844139;77;21455;-66
2021/05/24 07:58:20;;;;;;;4.15;2.22;;;;;;;15.26;69.75;98657.53;1842717;77;21062;-65
2021/05/24 08:00:47;;;;;;;5.10;2.55;;;;;;;15.43;69.28;98654.95;1831820;77;21031;-65
2021/05/24 08:03:15;;;;;;;3.70;2.27;;;;;;;15.61;69.61;98659.44;1839007;77;21103;-64
2021/05/24 08:05:42;;;;;;;5.85;2.37;;;;;;;15.77;68.44;98659.31;1830662;77;21056;-67
2021/05/24 08:08:10;;;;;;;4.70;2.20;;;;;;;15.92;67.75;98665.66;1837552;76;21573;-64
2021/05/24 08:10:38;;;;;;;4.45;2.25;;;;;;;16.10;67.38;98666.03;1837434;77;21846;-66
2021/05/24 08:13:06;;;;;;;4.30;2.30;;;;;;;16.21;65.91;98672.77;1841201;77;21119;-66
2021/05/24 08:15:39;;;;;;;3.40;2.02;;;;;;;16.21;64.20;98671.41;1833620;77;21496;-66
2021/05/24 08:18:09;;;;;;;5.33;2.20;;;;;;;16.14;65.27;98676.46;1840280;77;21000;-65
2021/05/24 08:20:38;;;;;;;6.00;2.30;;;;;;;16.19;64.89;98674.98;1832788;77;21055;-65
2021/05/24 08:23:08;;;;;;;3.30;1.90;;;;;;;16.31;64.76;98664.39;1832641;77;21014;-64
2021/05/24 08:25:44;;;;;;;5.05;2.30;;;;;;;16.43;64.31;98670.56;1839509;77;21015;-65
2021/05/24 08:28:14;;;;;;;;;;;;;;;16.49;64.78;98665.83;1841249;77;21573;-66
2021/05/24 08:30:45;;;;;;;3.60;1.85;;;;;;;16.57;62.69;98674.55;1828879;77;20602;-65
2021/05/24 08:33:13;;;;;;;3.33;1.72;;;;;;;16.63;62.97;98663.84;1831966;77;20947;-65
2021/05/24 08:35:42;;;;;;;5.62;1.90;;;;;;;16.74;64.09;98666.50;1831908;77;21079;-65
2021/05/24 08:38:14;;;;;;;3.73;1.77;;;;;;;16.91;64.25;98663.27;1845573;77;21569;-65
2021/05/24 08:40:43;;;;;;;5.70;1.67;;;;;;;17.06;61.59;98657.97;1812290;77;21121;-68
2021/05/24 08:43:10;;;;;;;4.10;2.10;;;;;;;17.10;62.12;98661.63;1809195;78;21106;-67
2021/05/24 08:45:44;;;;;;;3.87;1.70;;;;;;;17.13;61.36;98663.72;1801954;78;21078;-67
2021/05/24 08:48:24;;;;;;;2.77;1.30;;;;;;;17.21;61.77;98668.36;1799909;78;20964;-66
2021/05/24 08:51:03;;;;;;;4.15;1.67;;;;;;;17.39;61.01;98667.25;1800304;78;20980;-64
2021/05/24 08:53:38;;;;;;;4.45;1.37;;;;;;;17.52;58.80;98666.31;1806596;77;21383;-65
2021/05/24 08:56:11;;;;;;;3.25;1.45;;;;;;;17.62;60.45;98672.77;1773087;78;21031;-65
2021/05/24 08:58:44;;;;;;;2.83;1.35;;;;;;;17.73;58.44;98674.03;1798725;78;20933;-63
2021/05/24 09:01:17;;;;;;;3.25;1.47;;;;;;;17.81;58.98;98675.14;1810120;78;20989;-64
2021/05/24 09:04:02;;;;;;;2.55;1.25;;;;;;;17.95;58.24;98670.89;1813264;78;21568;-66
2021/05/24 09:06:41;;;;;;;;;;;;;;;18.13;58.14;98671.12;1791728;78;21091;-65
2021/05/24 09:09:17;;;;;;;2.40;1.27;;;;;;;18.23;57.13;98677.56;1799397;78;20476;-65
2021/05/24 09:11:46;;;;;;;2.77;1.20;;;;;;;18.14;56.55;98680.83;1804584;78;20968;-67
2021/05/24 09:14:18;;;;;;;2.45;1.10;;;;;;;18.00;56.54;98691.05;1797212;78;21358;-67
2021/05/24 09:17:00;;;;;;;4.08;1.15;;;;;;;17.97;54.43;98689.02;1797425;78;20867;-66
2021/05/24 09:19:29;;;;;;;3.75;1.30;;;;;;;18.09;55.60;98684.50;1774019;78;21615;-70
2021/05/24 09:22:03;;;;;;;2.65;1.20;;;;;;;18.32;54.68;98686.46;1802650;78;20992;-70
2021/05/24 09:24:37;;;;;;;9.28;1.72;;;;;;;18.41;54.63;98684.52;1802478;78;20940;-63
2021/05/24 09:27:27;;;;;;;3.27;1.17;;;;;;;18.37;54.86;98694.42;1807777;78;21555;-70
2021/05/24 09:29:59;;;;;;;2.55;1.20;;;;;;;18.26;54.60;98695.88;1807879;78;21227;-65
2021/05/24 09:32:26;;;;;;;1.60;0.82;;;;;;;18.12;52.98;98698.78;1792016;78;20930;-66
2021/05/24 09:34:55;;;;;;;3.22;1.12;;;;;;;18.09;52.21;98687.22;1798345;78;20926;-65
2021/05/24 09:37:40;;;;;;;3.50;1.20;;;;;;;18.17;51.30;98691.84;1800969;78;21507;-64
2021/05/24 09:40:27;;;;;;;7.25;1.27;;;;;;;18.32;52.56;98693.23;1808462;77;21132;-66
2021/05/24 09:43:07;;;;;;;2.65;1.05;;;;;;;18.45;51.85;98694.94;1787650;79;20997;-63
2021/05/24 09:45:40;;;;;;;2.87;1.07;;;;;;;18.32;50.36;98691.88;1808456;79;20878;-66
2021/05/24 09:48:07;;;;;;;2.72;1.15;;;;;;;18.05;51.59;98693.05;1782940;79;20973;-65
2021/05/24 09:50:41;;;;;;;7.47;1.47;;;;;;;17.86;52.14;98696.66;1789070;80;20987;-68
2021/05/24 09:53:11;;;;;;;2.05;0.98;;;;;;;17.75;52.15;98700.27;1781877;79;21149;-63
2021/05/24 09:55:38;;;;;;;3.25;1.22;;;;;;;17.82;52.55;98692.20;1758948;80;21006;-66
2021/05/24 09:58:11;;;;;;;4.47;0.98;;;;;;;18.05;52.11;98684.12;1784796;79;20949;-67
2021/05/24 10:01:02;;;;;;;3.62;1.10;;;;;;;18.42;50.78;98688.80;1787767;79;21028;-68
2021/05/24 10:03:24;;;;;;;2.83;1.20;;;;;;;18.80;50.04;98681.50;1802639;79;21037;-71
2021/05/24 10:05:52;;;;;;;0.88;0.60;;;;;;;19.11;47.09;98680.61;1777653;80;21075;-67
2021/05/24 10:08:19;;;;;;;3.20;0.70;;;;;;;19.24;48.19;98677.42;1777304;80;21025;-66
2021/05/24 10:10:47;;;;;;;1.75;0.75;;;;;;;19.32;47.03;98679.82;1777877;79;21598;-66
2021/05/24 10:13:15;;;;;;;5.28;0.78;;;;;;;19.23;46.24;98688.59;1797832;79;20977;-65
2021/05/24 10:15:44;;;;;;;1.70;0.88;;;;;;;19.00;46.70;98688.91;1760314;80;21559;-68
2021/05/24 10:18:12;;;;;;;3.42;0.90;;;;;;;18.82;47.45;98681.96;1778449;79;21218;-63
2021/05/24 10:20:40;;;;;;;1.82;0.88;;;;;;;18.64;46.77;98688.59;1772420;79;20910;-66
2021/05/24 10:23:07;;;;;;;2.30;1.00;;;;;;;18.47;47.12;98699.51;1790318;79;21096;-65
2021/05/24 10:25:35;;;;;;;2.87;0.98;;;;;;;18.45;46.30;98685.45;1778719;79;20949;-63
2021/05/24 10:28:03;;;;;;;2.27;1.00;;;;;;;18.58;48.35;98689.91;1791666;79;20990;-64
2021/05/24 10:30:35;;;;;;;3.52;1.00;;;;;;;18.87;47.27;98685.85;1795911;79;21142;-64
2021/05/24 10:33:05;;;;;;;2.58;0.93;;;;;;;19.07;46.31;98671.54;1765852;79;20905;-64
2021/05/24 10:35:36;;;;;;;2.75;1.05;;;;;;;19.27;46.65;98670.51;1796612;79;20866;-64
2021/05/24 10:38:32;;;;;;;2.37;0.78;;;;;;;19.37;47.03;98668.80;1796728;79;20920;-63
2021/05/24 10:41:13;;;;;;;;;;;;;;;19.40;46.51;98661.35;1765792;79;21086;-65
2021/05/24 10:43:49;;;;;;;3.25;0.85;;;;;;;19.31;46.42;98670.10;1785122;79;21755;-63
2021/05/24 10:46:31;;;;;;;1.22;0.90;;;;;;;19.10;46.69;98672.22;1772518;79;21124;-65
2021/05/24 10:49:14;;;;;;;3.00;1.00;;;;;;;18.90;47.52;98681.13;1772183;80;21512;-63
2021/05/24 10:51:58;;;;;;;2.02;0.80;;;;;;;18.66;47.64;98685.55;1791485;79;20950;-62
2021/05/24 10:54:31;;;;;;;5.60;1.27;;;;;;;18.52;47.97;98684.97;1781177;79;20946;-65
2021/05/24 10:57:04;;;;;;;1.52;0.90;;;;;;;18.41;48.46;98685.87;1792880;79;21049;-62
2021/05/24 10:59:46;;;;;;;1.55;0.78;;;;;;;18.33;47.48;98686.67;1766305;80;20992;-64
2021/05/24 11:02:26;;;;;;;1.55;0.60;;;;;;;18.30;47.79;98688.70;1753034;80;21416;-63
2021/05/24 11:05:09;;;;;;;1.07;0.70;;;;;;;18.33;47.24;98694.27;1775818;80;21007;-66
2021/05/24 11:07:43;;;;;;;2.25;0.60;;;;;;;18.49;46.38;98680.98;1789233;79;21081;-61
2021/05/24 11:10:20;;;;;;;1.82;0.68;;;;;;;18.71;46.03;98681.30;1760647;79;21054;-61
2021/05/24 11:12:56;;;;;;;1.47;0.95;;;;;;;18.97;46.04;98685.48;1791635;79;21491;-63
2021/05/24 11:15:33;;;;;;;2.15;0.88;;;;;;;19.28;45.55;98672.11;1783024;79;21524;-63
2021/05/24 11:18:12;;;;;;;1.25;0.80;;;;;;;19.55;44.43;98669.69;1790218;79;20970;-61
2021/05/24 11:21:16;;;;;;;2.62;0.93;;;;;;;19.85;44.33;98667.69;1789582;79;20904;-65
2021/05/24 11:26:28;;;;;;;2.95;0.60;;;;;;;20.40;42.32;98676.80;1760097;80;21013;-63
2021/05/24 11:29:15;;;;;;;2.75;0.70;;;;;;;20.63;42.42;98670.38;1789820;79;21546;-62
2021/05/24 11:31:48;;;;;;;;;;;;;;;20.87;41.90;98669.00;1827946;77;21096;-67
2021/05/24 11:34:34;;;;;;;4.47;0.80;;;;;;;21.10;41.47;98664.72;1816867;77;20198;-68
2021/05/24 11:37:08;;;;;;;3.10;0.75;;;;;;;21.23;41.02;98659.47;1814358;77;21672;-67
2021/05/24 11:39:52;;;;;;;3.27;0.60;;;;;;;21.35;39.50;98656.72;1818149;77;21122;-63
2021/05/24 11:42:23;;;;;;;;;;;;;;;21.32;39.83;98650.59;1847485;77;20945;-64
2021/05/24 11:44:51;;;;;;;1.22;0.57;;;;;;;21.31;40.29;98642.21;1826766;77;20492;-63
2021/05/24 11:47:21;;;;;;;1.50;0.70;;;;;;;21.25;39.70;98644.13;1827564;77;20946;-65
2021/05/24 11:49:53;;;;;;;1.30;0.70;;;;;;;21.43;40.46;98647.59;1802510;77;21056;-69
2021/05/24 11:52:25;;;;;;;0.95;0.53;;;;;;;21.67;40.04;98636.62;1847326;77;20942;-66
2021/05/24 11:54:53;;;;;;;2.12;0.80;;;;;;;21.92;39.65;98640.08;1814951;79;20997;-66
2021/05/24 11:57:23;;;;;;;0.82;0.50;;;;;;;22.20;39.15;98625.81;1808052;77;21535;-68
2021/05/24 11:59:50;;;;;;;1.90;0.70;;;;;;;22.52;37.83;98640.25;1827548;77;20965;-67
2021/05/24 12:02:19;;;;;;;1.12;0.60;;;;;;;22.74;38.03;98642.39;1805612;78;21083;-67
2021/05/24 12:04:47;;;;;;;2.52;0.70;;;;;;;23.03;37.27;98650.08;1817296;77;20970;-67
2021/05/24 12:07:22;;;;;;;3.10;0.62;;;;;;;23.14;35.88;98648.41;1838520;77;20981;-69
2021/05/24 12:09:51;;;;;;;2.08;0.50;;;;;;;22.86;35.41;98639.56;1816522;77;20999;-66
2021/05/24 12:12:35;;;;;;;1.05;0.70;;;;;;;22.44;37.60;98647.50;1820830;77;20963;-66
2021/05/24 12:15:04;;;;;;;2.20;0.80;;;;;;;22.03;37.48;98636.25;1835945;77;21061;-67
2021/05/24 12:17:34;;;;;;;1.30;0.70;;;;;;;21.72;38.93;98643.75;1841213;77;20925;-70
2021/05/24 12:20:09;;;;;;;1.15;0.70;;;;;;;21.68;37.74;98651.84;1825695;77;20859;-70
2021/05/24 12:22:40;;;;;;;1.10;0.78;;;;;;;21.57;38.79;98637.13;1827234;77;21000;-68
2021/05/24 12:25:09;;;;;;;3.80;0.70;;;;;;;21.48;38.40;98635.69;1831709;77;20921;-67
2021/05/24 12:27:38;;;;;;;3.40;0.80;;;;;;;21.32;38.81;98625.27;1834064;77;21093;-65
2021/05/24 12:30:29;;;;;;;1.77;0.60;;;;;;;21.21;38.86;98626.33;1846647;77;20906;-63
2021/05/24 12:33:03;;;;;;;1.90;0.50;;;;;;;21.21;39.51;98621.45;1819156;77;20977;-68
2021/05/24 12:35:33;;;;;;;1.25;0.70;;;;;;;21.45;39.57;98624.91;1834532;77;21558;-69
2021/05/24 12:40:28;;;;;;;1.72;0.62;;;;;;;22.13;37.34;98636.55;1863863;76;22690;-68
2021/05/24 12:42:56;;;;;;;1.80;0.60;;;;;;;22.25;36.68;98631.58;1831252;77;20980;-67
2021/05/24 12:45:28;;;;;;;1.15;0.50;;;;;;;22.31;36.30;98638.35;1837914;77;21569;-70
2021/05/24 12:48:19;;;;;;;2.70;0.62;;;;;;;22.36;36.31;98647.65;1835325;77;21021;-66
2021/05/24 12:50:49;;;;;;;1.92;0.80;;;;;;;22.37;35.23;98636.97;1847488;77;21446;-67
2021/05/24 12:53:19;;;;;;;1.47;0.60;;;;;;;22.23;35.31;98633.88;1835173;77;20937;-67
2021/05/24 12:55:46;;;;;;;2.27;0.50;;;;;;;22.23;36.06;98637.97;1813989;79;20870;-67
2021/05/24 12:58:17;;;;;;;0.88;0.50;;;;;;;22.40;36.62;98636.23;1794114;79;21470;-68
2021/05/24 13:00:54;;;;;;;0.90;0.60;;;;;;;22.72;34.52;98632.97;1800111;79;20894;-67
2021/05/24 13:03:46;;;;;;;1.30;0.70;;;;;;;23.01;35.48;98637.36;1802879;79;21012;-67
2021/05/24 13:06:14;;;;;;;2.00;0.70;;;;;;;23.40;32.77;98640.19;1749688;80;20962;-66
2021/05/24 13:09:03;;;;;;;3.50;0.60;;;;;;;23.38;32.59;98657.52;1788065;78;21128;-70
2021/05/24 14:31:32;;;;;;;5.70;0.80;;;;;;;21.75;36.48;98629.44;1862673;76;22287;-65
2021/05/24 14:33:59;;;;;;;2.45;0.70;;;;;;;21.56;36.12;98619.18;1766697;80;21022;-68
2021/05/24 14:36:26;;;;;;;1.85;0.78;;;;;;;21.43;36.53;98624.44;1799695;77;21080;-66
2021/05/24 14:38:53;;;;;;;5.00;0.80;;;;;;;21.45;36.48;98622.19;1830003;77;21466;-66
2021/05/24 14:41:21;;;;;;;1.80;0.55;;;;;;;21.54;36.49;98619.30;1808407;77;21321;-68
2021/05/24 14:43:48;;;;;;;5.40;0.95;;;;;;;21.67;36.64;98622.98;1813634;77;20948;-68
2021/05/24 14:46:15;;;;;;;1.35;0.75;;;;;;;21.89;36.54;98623.59;1838111;77;20922;-64
2021/05/24 14:48:43;;;;;;;2.40;0.70;;;;;;;22.08;35.55;98631.91;1836846;77;21494;-69
2021/05/24 14:51:11;;;;;;;1.05;0.50;;;;;;;22.27;35.04;98621.91;1829394;77;20959;-67
2021/05/24 14:53:38;;;;;;;2.58;0.82;;;;;;;22.39;34.63;98623.19;1830235;77;20970;-69
2021/05/24 14:56:05;;;;;;;1.22;0.55;;;;;;;22.55;34.47;98613.63;1823912;77;21468;-69
2021/05/24 14:58:34;;;;;;;2.00;0.60;;;;;;;22.81;34.58;98613.88;1806266;77;21431;-68
2021/05/24 15:01:01;;;;;;;1.40;0.50;;;;;;;23.03;33.78;98613.20;1812012;77;21328;-69
2021/05/24 15:03:28;;;;;;;0.95;0.50;;;;;;;23.17;33.49;98608.64;1832957;77;20846;-70
2021/05/24 15:05:57;;;;;;;10.10;1.00;;;;;;;23.29;34.06;98610.45;1798316;78;21465;-69
2021/05/24 15:08:24;;;;;;;2.40;0.78;;;;;;;23.39;33.98;98611.28;1831157;78;20908;-70
2021/05/24 15:10:52;;;;;;;4.12;0.60;;;;;;;23.46;33.42;98604.00;1817028;78;21568;-69
2021/05/24 15:13:20;;;;;;;2.02;0.70;;;;;;;23.54;34.50;98599.47;1824478;78;21466;-69
2021/05/24 15:15:49;;;;;;;2.08;0.60;;;;;;;23.71;33.67;98601.77;1812409;78;21466;-69
2021/05/24 15:18:20;;;;;;;3.45;0.75;;;;;;;23.92;33.37;98604.11;1813048;78;20919;-69
2021/05/24 15:20:51;;;;;;;1.05;0.60;;;;;;;24.04;32.06;98602.01;1813808;78;21452;-69
2021/05/24 15:23:20;;;;;;;1.62;0.60;;;;;;;23.91;31.66;98606.05;1818423;78;21327;-68
2021/05/24 15:25:47;;;;;;;1.42;0.50;;;;;;;23.92;32.10;98604.91;1831002;78;21031;-68
2021/05/24 15:28:15;;;;;;;3.22;0.40;;;;;;;24.13;31.93;98613.53;1800878;78;21493;-68
2021/05/24 15:30:45;;;;;;;1.98;0.55;;;;;;;24.41;32.67;98611.28;1822407;78;20950;-69
2021/05/24 15:33:14;;;;;;;0.65;0.50;;;;;;;24.58;31.35;98607.83;1818163;78;21581;-67
2021/05/24 15:35:41;;;;;;;1.05;0.70;;;;;;;24.41;31.05;98605.80;1831778;78;21003;-65
2021/05/24 15:38:13;;;;;;;1.40;0.60;;;;;;;24.03;31.99;98599.05;1817088;78;21010;-69
2021/05/24 15:40:41;;;;;;;1.57;0.50;;;;;;;23.88;31.97;98592.32;1811896;78;20864;-67
2021/05/24 15:43:09;;;;;;;0.90;0.47;;;;;;;23.97;31.98;98594.24;1816576;78;20880;-68
2021/05/24 15:45:38;;;;;;;3.05;0.80;;;;;;;24.08;31.56;98596.61;1790672;78;21509;-68
2021/05/24 15:48:07;;;;;;;0.55;0.50;;;;;;;24.15;32.29;98600.27;1829386;78;21454;-69
2021/05/24 15:50:34;;;;;;;1.98;0.70;;;;;;;24.24;32.28;98600.81;1814626;78;21116;-69
2021/05/24 15:53:01;;;;;;;0.75;0.50;;;;;;;24.30;31.91;98598.00;1802646;78;21342;-69
2021/05/24 15:55:28;;;;;;;1.22;0.60;;;;;;;24.21;31.86;98596.06;1813335;78;20971;-67
2021/05/24 15:57:55;;;;;;;1.55;0.70;;;;;;;23.97;31.89;98593.67;1825044;78;21086;-66
2021/05/24 16:00:23;;;;;;;1.70;0.70;;;;;;;23.62;32.35;98593.00;1814500;78;21454;-69
2021/05/24 16:02:53;;;;;;;1.35;0.80;;;;;;;23.29;33.50;98592.69;1820899;78;21419;-68
2021/05/24 16:05:20;;;;;;;2.60;0.80;;;;;;;22.93;33.51;98597.39;1836553;76;20881;-68
2021/05/24 16:07:48;;;;;;;3.27;0.90;;;;;;;22.57;33.81;98585.95;1865334;75;21452;-67
2021/05/24 16:10:15;;;;;;;4.65;0.90;;;;;;;22.28;34.89;98589.96;1850893;77;21095;-67
2021/05/24 16:12:41;;;;;;;1.35;0.90;;;;;;;22.10;35.15;98588.70;1861220;76;20980;-66
2021/05/24 16:15:12;;;;;;;2.83;1.00;;;;;;;21.86;35.47;98594.33;1872773;76;21440;-63
2021/05/24 16:17:41;;;;;;;3.42;0.80;;;;;;;21.61;35.69;98588.95;1834314;76;20885;-67
2021/05/24 16:20:11;;;;;;;1.62;0.70;;;;;;;21.36;36.06;98601.07;1845913;76;20838;-65
2021/05/24 16:22:43;;;;;;;2.95;1.00;;;;;;;21.13;36.65;98589.91;1858993;76;20902;-67
2021/05/24 16:25:30;;;;;;;3.58;0.70;;;;;;;20.93;37.25;98587.33;1847424;76;21475;-70
2021/05/24 16:27:38;;;;;;;1.70;0.70;;;;;;;20.69;37.42;98589.52;1863052;76;21199;-68
2021/05/24 16:30:08;;;;;;;1.75;0.85;;;;;;;20.50;37.95;98596.09;1869361;76;21391;-68
2021/05/24 16:32:36;;;;;;;1.65;0.80;;;;;;;20.35;38.16;98604.36;1861928;75;20910;-66
2021/05/24 16:35:05;;;;;;;1.60;0.70;;;;;;;20.23;39.31;98598.13;1838155;76;21437;-66
2021/05/24 16:37:34;;;;;;;2.35;0.75;;;;;;;20.10;40.05;98603.28;1865476;76;20937;-66
2021/05/24 16:40:01;;;;;;;1.60;0.78;;;;;;;19.96;40.37;98606.31;1848531;76;21148;-65
2021/05/24 16:42:33;;;;;;;0.95;0.55;;;;;;;19.82;40.78;98603.66;1854411;76;21427;-66
2021/05/24 16:45:02;;;;;;;2.05;0.90;;;;;;;19.71;42.03;98612.82;1879106;76;21552;-65
2021/05/24 16:47:29;;;;;;;12.35;1.50;;;;;;;19.61;41.93;98603.16;1868490;76;20874;-69
2021/05/24 16:49:58;;;;;;;4.20;0.98;;;;;;;19.52;42.19;98603.01;1809827;78;20874;-66
2021/05/24 16:52:25;;;;;;;5.00;0.90;;;;;;;19.41;41.83;98601.25;1815240;79;21410;-68
2021/05/24 16:54:52;;;;;;;3.12;0.80;;;;;;;19.32;42.45;98601.06;1768230;79;21427;-68
2021/05/24 16:57:19;;;;;;;1.80;1.25;;;;;;;19.20;43.25;98604.51;1798275;78;21466;-67
2021/05/24 16:59:48;;;;;;;2.37;1.20;;;;;;;19.10;43.36;98599.50;1759884;81;21409;-66
2021/05/24 17:02:16;;;;;;;6.28;1.90;;;;;;;18.99;43.76;98599.08;1781993;79;20905;-66
2021/05/24 17:04:45;;;;;;;5.42;1.25;;;;;;;18.90;44.98;98601.62;1712839;81;21435;-66
2021/05/24 17:07:13;;;;;;;1.52;1.17;;;;;;;18.75;46.01;98595.40;1722427;83;21475;-65
2021/05/24 17:09:40;;;;;;;3.22;1.10;;;;;;;18.60;46.52;98595.42;1689326;83;21534;-68
2021/05/24 17:12:08;;;;;;;5.42;0.90;;;;;;;18.44;47.13;98599.80;1717628;81;21020;-66
2021/05/24 17:15:00;;;;;;;2.25;0.95;;;;;;;18.30;47.94;98604.64;1694915;84;20988;-66
